Terminal Aerodrome Forecast
Issued by NWS Houston/Galveston, TX

Current Version | Previous Version | Text Only | Print | Product List | Glossary On
Versions: 1 2 3 4 5 6 7 8 9 10 11 12 13 14 15 16 17 18 19 20 21 22 23 24 25 26 27 28 29 30 31 32 33 34
000
FTUS44 KHGX 311720
TAFGLS
TAF
KGLS 311720Z 3118/0118 19013KT P6SM SCT030
     FM010000 21005KT P6SM VCTS SCT027CB BKN150
      TEMPO 0105/0109 4SM TSRA BKN030CB
     FM011500 25005KT P6SM SCT020 BKN060=

USA.gov is the U.S. government's official web portal to all federal, state and local government web resources and services.